createdAt,value
2018-04-01T00:00:16.462Z,61.62
2018-04-01T00:01:16.460Z,61.35
2018-04-01T00:02:16.476Z,61.35
2018-04-01T00:03:16.509Z,61.82
2018-04-01T00:04:16.467Z,61.57
2018-04-01T00:05:16.458Z,61.19
2018-04-01T00:06:16.462Z,61.52
2018-04-01T00:07:16.479Z,61.91
2018-04-01T00:08:16.458Z,61.75
2018-04-01T00:09:16.457Z,61.61
2018-04-01T00:10:16.459Z,61.44
2018-04-01T00:11:16.459Z,61.05
2018-04-01T00:12:16.487Z,62.27
2018-04-01T00:13:16.463Z,62.04
2018-04-01T00:14:16.459Z,62.07
2018-04-01T00:15:16.468Z,61.87
2018-04-01T00:16:16.469Z,61.77
2018-04-01T00:17:16.493Z,61.5
2018-04-01T00:18:16.465Z,61.24
2018-04-01T00:19:16.490Z,61.61
2018-04-01T00:20:16.462Z,61.61
2018-04-01T00:21:16.465Z,61.54
2018-04-01T00:22:16.494Z,61.49
2018-04-01T00:23:16.467Z,61.75
2018-04-01T00:24:16.466Z,61.86
2018-04-01T00:25:16.469Z,61.92
2018-04-01T00:26:16.477Z,61.96
2018-04-01T00:27:16.470Z,61.56
2018-04-01T00:28:16.468Z,61.77
2018-04-01T00:29:16.496Z,62.03
2018-04-01T00:30:16.464Z,62.33
2018-04-01T00:31:16.471Z,62.17
2018-04-01T00:32:16.482Z,62.58
2018-04-01T00:33:16.469Z,62.35
2018-04-01T00:34:16.549Z,62.36
2018-04-01T00:35:16.492Z,62.13
2018-04-01T00:36:16.531Z,62.08
2018-04-01T00:37:16.473Z,62.15
2018-04-01T00:38:16.474Z,62.63
2018-04-01T00:39:16.473Z,62.66
2018-04-01T00:40:16.471Z,62.72
2018-04-01T00:41:16.673Z,62.82
2018-04-01T00:42:16.470Z,62.73
2018-04-01T00:43:16.471Z,62.73
2018-04-01T00:44:16.470Z,62.44
2018-04-01T00:45:16.473Z,62.53
2018-04-01T00:46:16.494Z,64.5
2018-04-01T00:47:16.478Z,64.9
2018-04-01T00:48:16.481Z,65.21
2018-04-01T00:49:16.478Z,64.54
2018-04-01T00:50:16.483Z,64.27
2018-04-01T00:51:16.474Z,63.77
2018-04-01T00:52:16.511Z,64.94
2018-04-01T00:53:16.478Z,64.5
2018-04-01T00:54:16.483Z,64.4
2018-04-01T00:55:16.475Z,64.21
2018-04-01T00:56:16.479Z,64.73
2018-04-01T00:57:16.478Z,65.3
2018-04-01T00:58:16.476Z,64.73
2018-04-01T00:59:16.475Z,65.44
2018-04-01T01:00:16.484Z,65.12
2018-04-01T01:01:16.486Z,65.58
2018-04-01T01:02:16.480Z,64.9
2018-04-01T01:03:16.936Z,65.27
2018-04-01T01:04:16.491Z,65.3
2018-04-01T01:05:16.559Z,65.43
2018-04-01T01:06:16.501Z,65.38
2018-04-01T01:07:16.492Z,65.83
2018-04-01T01:08:16.501Z,65.68
2018-04-01T01:09:16.488Z,65.55
2018-04-01T01:10:16.515Z,65.77
2018-04-01T01:11:16.502Z,65.75
2018-04-01T01:12:16.482Z,65.98
2018-04-01T01:13:16.486Z,66.17
2018-04-01T01:14:16.483Z,65.67
2018-04-01T01:15:16.487Z,65.34
2018-04-01T01:16:16.486Z,65.51
2018-04-01T01:17:16.489Z,65.72
2018-04-01T01:18:16.517Z,65.71
2018-04-01T01:19:16.492Z,65.95
2018-04-01T01:20:16.506Z,65.62
2018-04-01T01:21:16.491Z,65.42
2018-04-01T01:22:16.500Z,65.84
2018-04-01T01:23:16.488Z,66.02
2018-04-01T01:24:16.487Z,65.79
2018-04-01T01:25:16.490Z,66.04
2018-04-01T01:26:16.510Z,66.01
2018-04-01T01:27:16.493Z,66
2018-04-01T01:28:16.487Z,65.91
2018-04-01T01:29:16.486Z,66.29
2018-04-01T01:30:16.485Z,66
2018-04-01T01:31:16.490Z,66.01
2018-04-01T01:32:16.533Z,66.38
2018-04-01T01:33:16.498Z,66.38
2018-04-01T01:34:16.493Z,66.64
2018-04-01T01:35:16.504Z,66.62
2018-04-01T01:36:16.605Z,66.53
2018-04-01T01:37:16.516Z,66.45
2018-04-01T01:38:16.497Z,66.52
2018-04-01T01:39:16.493Z,66.45
2018-04-01T01:40:16.493Z,66.44
2018-04-01T01:41:16.494Z,66.97
2018-04-01T01:42:16.513Z,66.73
2018-04-01T01:43:16.496Z,66.94
2018-04-01T01:44:16.497Z,66.82
2018-04-01T01:45:16.496Z,66.61
2018-04-01T01:46:16.494Z,66.75
2018-04-01T01:47:16.498Z,67.2
2018-04-01T01:48:16.528Z,67.03
2018-04-01T01:49:16.505Z,67.72
2018-04-01T01:50:16.524Z,67.02
2018-04-01T01:51:16.505Z,67.38
2018-04-01T01:52:16.507Z,67.65
2018-04-01T01:53:16.498Z,67.87
2018-04-01T01:54:16.504Z,67.68
2018-04-01T01:55:16.497Z,67.73
2018-04-01T01:56:16.501Z,67.71
2018-04-01T01:57:16.500Z,67.37
2018-04-01T01:58:16.502Z,67.87
2018-04-01T01:59:16.500Z,67.95
2018-04-01T02:00:16.521Z,68.23
2018-04-01T02:01:16.497Z,68.33
2018-04-01T02:02:16.496Z,68.74
2018-04-01T02:03:16.502Z,69.12
2018-04-01T02:04:16.507Z,69.49
2018-04-01T02:05:16.873Z,69.6
2018-04-01T02:06:16.503Z,69.72
2018-04-01T02:07:16.632Z,70.08
2018-04-01T02:08:16.500Z,70.16
2018-04-01T02:09:16.505Z,70.78
2018-04-01T02:10:16.531Z,70.82
2018-04-01T02:11:16.502Z,70.82
2018-04-01T02:12:16.510Z,70.69
2018-04-01T02:13:16.504Z,70.95
2018-04-01T02:14:16.503Z,71.09
2018-04-01T02:15:16.504Z,71.7
2018-04-01T02:16:16.506Z,72.68
2018-04-01T02:17:16.507Z,72.58
2018-04-01T02:18:16.507Z,72.92
2018-04-01T02:19:16.505Z,73.8
2018-04-01T02:20:16.512Z,74.32
2018-04-01T02:21:16.531Z,74.69
2018-04-01T02:22:16.510Z,75.62
2018-04-01T02:23:16.518Z,75.12
2018-04-01T02:24:16.509Z,74.36
2018-04-01T02:25:16.512Z,75.15
2018-04-01T02:26:16.644Z,75.81
2018-04-01T02:27:16.510Z,75.32
2018-04-01T02:28:16.510Z,75.06
2018-04-01T02:29:16.511Z,75.14
2018-04-01T02:30:16.511Z,76
2018-04-01T02:31:16.575Z,76.1
2018-04-01T02:32:16.514Z,75.93
2018-04-01T02:33:16.510Z,75.42
2018-04-01T02:34:16.513Z,75.66
2018-04-01T02:35:16.519Z,75.49
2018-04-01T02:36:16.520Z,76.23
2018-04-01T02:37:16.517Z,78.06
2018-04-01T02:38:16.603Z,77.24
2018-04-01T02:39:16.532Z,77.19
2018-04-01T02:40:16.514Z,77.52
2018-04-01T02:41:16.631Z,77.65
2018-04-01T02:42:16.623Z,77.83
2018-04-01T02:43:16.514Z,78.46
2018-04-01T02:44:16.520Z,79.4
2018-04-01T02:45:16.516Z,78.62
2018-04-01T02:46:16.517Z,77.76
2018-04-01T02:47:16.542Z,78.43
2018-04-01T02:48:16.519Z,78.46
2018-04-01T02:49:16.520Z,78.91
2018-04-01T02:50:16.524Z,78.61
2018-04-01T02:51:16.524Z,78.28
2018-04-01T02:52:16.543Z,79.12
2018-04-01T02:53:16.524Z,78.28
2018-04-01T02:54:16.706Z,79.19
2018-04-01T02:55:16.538Z,78.57
2018-04-01T02:56:16.518Z,79.29
2018-04-01T02:57:16.523Z,78.8
2018-04-01T02:58:16.524Z,79.19
2018-04-01T02:59:16.550Z,79.05
2018-04-01T03:00:16.559Z,78.67
2018-04-01T03:01:16.521Z,79.3
2018-04-01T03:02:16.535Z,79.28
2018-04-01T03:03:16.521Z,79.14
2018-04-01T03:04:16.522Z,79.42
2018-04-01T03:05:16.546Z,79.07
2018-04-01T03:06:16.559Z,78.96
2018-04-01T03:07:16.552Z,78.98
2018-04-01T03:08:16.528Z,78.32
2018-04-01T03:09:16.577Z,79.18
2018-04-01T03:10:16.549Z,80.5
2018-04-01T03:11:16.524Z,79.19
2018-04-01T03:12:16.528Z,78.81
2018-04-01T03:13:16.558Z,79.27
2018-04-01T03:14:16.525Z,79.49
2018-04-01T03:15:16.528Z,79.15
2018-04-01T03:16:16.528Z,78.9
2018-04-01T03:17:16.528Z,79.06
2018-04-01T03:18:16.554Z,78.87
2018-04-01T03:19:16.531Z,78.68
2018-04-01T03:20:16.530Z,78.65
2018-04-01T03:21:16.531Z,78.17
2018-04-01T03:22:16.534Z,79.01
2018-04-01T03:23:16.574Z,78.53
2018-04-01T03:24:16.536Z,78.49
2018-04-01T03:25:16.539Z,78.75
2018-04-01T03:26:16.546Z,78.28
2018-04-01T03:27:16.541Z,79.48
2018-04-01T03:28:16.537Z,78.97
2018-04-01T03:29:16.530Z,79.26
2018-04-01T03:30:16.532Z,78.46
2018-04-01T03:31:16.769Z,79.01
2018-04-01T03:32:16.531Z,79.12
2018-04-01T03:33:16.547Z,79.01
2018-04-01T03:34:16.535Z,78.8
2018-04-01T03:35:16.535Z,79.2
2018-04-01T03:36:16.561Z,79.08
2018-04-01T03:37:16.540Z,78.97
2018-04-01T03:38:16.539Z,78.91
2018-04-01T03:39:16.535Z,78.77
2018-04-01T03:40:16.615Z,79.25
2018-04-01T03:41:16.561Z,79.55
2018-04-01T03:42:16.542Z,79.72
2018-04-01T03:43:16.536Z,79.03
2018-04-01T03:44:16.540Z,79.08
2018-04-01T03:45:16.537Z,79.53
2018-04-01T03:46:16.565Z,79.57
2018-04-01T03:47:16.550Z,80.07
2018-04-01T03:48:16.569Z,79.62
2018-04-01T03:49:16.537Z,79.6
2018-04-01T03:50:16.539Z,79.14
2018-04-01T03:51:16.541Z,79.38
2018-04-01T03:52:16.544Z,79.56
2018-04-01T03:53:16.566Z,79.54
2018-04-01T03:54:16.586Z,79.65
2018-04-01T03:55:16.543Z,79.28
2018-04-01T03:56:16.544Z,79.86
2018-04-01T03:57:16.545Z,79.22
2018-04-01T03:58:16.545Z,79.38
2018-04-01T03:59:16.585Z,79.49
2018-04-01T04:00:16.548Z,79.53
2018-04-01T04:01:16.555Z,80.21
2018-04-01T04:02:16.541Z,79.59
2018-04-01T04:03:16.542Z,79.66
2018-04-01T04:04:16.549Z,79.69
2018-04-01T04:05:16.542Z,79.99
2018-04-01T04:06:16.549Z,80.39
2018-04-01T04:07:16.546Z,80.39
2018-04-01T04:08:17.075Z,79.4
2018-04-01T04:09:16.550Z,79.62
2018-04-01T04:10:16.558Z,79.54
2018-04-01T04:11:16.595Z,79.75
2018-04-01T04:12:16.579Z,79.59
2018-04-01T04:13:16.559Z,80.09
2018-04-01T04:14:16.543Z,79.67
2018-04-01T04:15:16.549Z,79.88
2018-04-01T04:16:16.552Z,79.31
2018-04-01T04:17:16.596Z,79.36
2018-04-01T04:18:16.547Z,79.26
2018-04-01T04:19:16.550Z,79.14
2018-04-01T04:20:16.548Z,79.56
2018-04-01T04:21:16.549Z,79.13
2018-04-01T04:22:16.550Z,78.95
2018-04-01T04:23:16.576Z,79.78
2018-04-01T04:24:16.552Z,79.96
2018-04-01T04:25:16.562Z,79.66
2018-04-01T04:26:16.554Z,79.67
2018-04-01T04:27:16.575Z,79.36
2018-04-01T04:28:16.550Z,79.65
2018-04-01T04:29:16.557Z,79.92
2018-04-01T04:30:16.553Z,80.03
2018-04-01T04:31:16.555Z,79.61
2018-04-01T04:32:16.580Z,80.12
2018-04-01T04:33:16.554Z,79.72
2018-04-01T04:34:16.554Z,80.28
2018-04-01T04:35:16.549Z,79.81
2018-04-01T04:36:16.551Z,80.52
2018-04-01T04:37:16.574Z,79.81
2018-04-01T04:38:16.553Z,79.7
2018-04-01T04:39:16.558Z,80.15
2018-04-01T04:40:16.567Z,80.02
2018-04-01T04:41:16.601Z,80.49
2018-04-01T04:42:16.682Z,80.54
2018-04-01T04:43:16.573Z,80.56
2018-04-01T04:44:16.556Z,80.28
2018-04-01T04:45:16.562Z,80.28
2018-04-01T04:46:16.574Z,80.25
2018-04-01T04:47:16.866Z,80.01
2018-04-01T04:48:16.563Z,79.8
2018-04-01T04:49:16.558Z,78.82
2018-04-01T04:50:16.559Z,80
2018-04-01T04:51:16.566Z,79.81
2018-04-01T04:52:16.596Z,80.29
2018-04-01T04:53:16.582Z,80.31
2018-04-01T04:54:16.562Z,80.23
2018-04-01T04:55:16.577Z,80.27
2018-04-01T04:56:16.585Z,80.43
2018-04-01T04:57:16.570Z,80.13
2018-04-01T04:58:16.562Z,79.78
2018-04-01T04:59:16.573Z,80.17
2018-04-01T05:00:16.590Z,80.21
2018-04-01T05:01:16.612Z,80.04
2018-04-01T05:02:16.562Z,80.17
2018-04-01T05:03:16.566Z,80.3
2018-04-01T05:04:16.568Z,80.14
2018-04-01T05:05:16.580Z,79.86
2018-04-01T05:06:16.835Z,79.93
2018-04-01T05:07:16.569Z,80.14
2018-04-01T05:08:16.574Z,80.08
2018-04-01T05:09:16.569Z,80.16
2018-04-01T05:10:16.578Z,79.55
2018-04-01T05:11:16.593Z,80.32
2018-04-01T05:12:16.571Z,80.03
2018-04-01T05:13:16.629Z,79.57
2018-04-01T05:14:16.617Z,79.46
2018-04-01T05:15:16.569Z,79.12
2018-04-01T05:16:16.577Z,79.02
2018-04-01T05:17:16.574Z,78.67
2018-04-01T05:18:16.580Z,78.71
2018-04-01T05:19:16.596Z,79.03
2018-04-01T05:20:16.580Z,78.86
2018-04-01T05:21:16.577Z,78.48
2018-04-01T05:22:16.572Z,78.52
2018-04-01T05:23:16.574Z,78.54
2018-04-01T05:24:16.604Z,78.27
2018-04-01T05:25:16.576Z,78.13
2018-04-01T05:26:16.580Z,77.96
2018-04-01T05:27:16.585Z,78.17
2018-04-01T05:28:16.579Z,78.09
2018-04-01T05:29:16.582Z,78.03
2018-04-01T05:30:16.577Z,78.17
2018-04-01T05:31:16.586Z,78.67
2018-04-01T05:32:16.581Z,78.16
2018-04-01T05:33:16.584Z,78.22
2018-04-01T05:34:16.587Z,78.33
2018-04-01T05:35:16.827Z,78.66
2018-04-01T05:36:16.577Z,78.88
2018-04-01T05:37:16.574Z,78.73
2018-04-01T05:38:16.580Z,79.43
2018-04-01T05:39:16.580Z,79.11
2018-04-01T05:40:16.610Z,79.37
2018-04-01T05:41:16.586Z,79.38
2018-04-01T05:42:16.587Z,79.64
2018-04-01T05:43:16.581Z,79.62
2018-04-01T05:44:16.664Z,79.77
2018-04-01T05:45:16.595Z,79.38
2018-04-01T05:46:16.599Z,79.36
2018-04-01T05:47:16.585Z,79.29
2018-04-01T05:48:16.593Z,79.07
2018-04-01T05:49:16.608Z,79.04
2018-04-01T05:50:16.591Z,79.4
2018-04-01T05:51:16.606Z,79.33
2018-04-01T05:52:16.597Z,79.09
2018-04-01T05:53:16.581Z,79.35
2018-04-01T05:54:16.586Z,78.75
2018-04-01T05:55:16.588Z,78.55
2018-04-01T05:56:16.626Z,79.09
2018-04-01T05:57:16.614Z,78.47
2018-04-01T05:58:16.588Z,78.65
2018-04-01T05:59:16.585Z,79.31
2018-04-01T06:00:16.585Z,79.01
2018-04-01T06:01:16.587Z,78.65
2018-04-01T06:02:16.611Z,78.54
2018-04-01T06:03:16.622Z,78.16
2018-04-01T06:04:16.591Z,78.28
2018-04-01T06:05:16.587Z,78.26
2018-04-01T06:06:16.587Z,78.34
2018-04-01T06:07:16.595Z,78.25
2018-04-01T06:08:16.958Z,78.18
2018-04-01T06:09:16.589Z,78.1
2018-04-01T06:10:16.589Z,77.98
2018-04-01T06:11:16.591Z,78.17
2018-04-01T06:12:16.609Z,78.05
2018-04-01T06:13:16.720Z,77.95
2018-04-01T06:14:16.587Z,77.74
2018-04-01T06:15:16.693Z,77.41
2018-04-01T06:16:16.589Z,77.82
2018-04-01T06:17:16.594Z,77.77
2018-04-01T06:18:16.918Z,77.74
2018-04-01T06:19:16.593Z,77.83
2018-04-01T06:20:16.608Z,77.9
2018-04-01T06:21:16.591Z,77.59
2018-04-01T06:22:16.592Z,77.54
2018-04-01T06:23:16.618Z,77.1
2018-04-01T06:24:16.959Z,77.03
2018-04-01T06:25:16.622Z,77.03
2018-04-01T06:26:16.595Z,77.3
2018-04-01T06:27:16.597Z,77.41
2018-04-01T06:28:16.599Z,77.39
2018-04-01T06:29:16.617Z,77.22
2018-04-01T06:30:16.598Z,77.06
2018-04-01T06:31:16.594Z,76.89
2018-04-01T06:32:16.602Z,76.68
2018-04-01T06:33:16.595Z,76.69
2018-04-01T06:34:16.598Z,76.83
2018-04-01T06:35:16.607Z,76.93
2018-04-01T06:36:16.594Z,77.04
2018-04-01T06:37:16.613Z,77.23
2018-04-01T06:38:16.598Z,77.12
2018-04-01T06:39:16.618Z,76.77
2018-04-01T06:40:16.597Z,76.91
2018-04-01T06:41:16.627Z,76.82
2018-04-01T06:42:16.605Z,77.61
2018-04-01T06:43:16.597Z,77.25
2018-04-01T06:44:16.620Z,77.34
2018-04-01T06:45:16.603Z,77.42
2018-04-01T06:46:16.681Z,77.43
2018-04-01T06:47:16.599Z,77.72
2018-04-01T06:48:16.604Z,77.49
2018-04-01T06:49:16.599Z,77.31
2018-04-01T06:50:16.616Z,77.15
2018-04-01T06:51:16.642Z,78.05
2018-04-01T06:52:16.613Z,77.74
2018-04-01T06:53:16.606Z,77.55
2018-04-01T06:54:16.608Z,77.2
2018-04-01T06:55:16.614Z,77.32
2018-04-01T06:56:16.660Z,77.5
2018-04-01T06:57:16.611Z,77.12
2018-04-01T06:58:16.643Z,76.91
2018-04-01T06:59:16.618Z,77.3
2018-04-01T07:00:16.632Z,77.22
2018-04-01T07:01:16.642Z,77.31
2018-04-01T07:02:16.606Z,77.26
2018-04-01T07:03:16.605Z,77.38
2018-04-01T07:04:16.605Z,77.36
2018-04-01T07:05:16.621Z,77.59
2018-04-01T07:06:16.608Z,77.13
2018-04-01T07:07:16.610Z,77.19
2018-04-01T07:08:16.614Z,76.7
2018-04-01T07:09:16.611Z,77.06
2018-04-01T07:10:16.623Z,77.28
2018-04-01T07:11:16.621Z,77.75
2018-04-01T07:12:16.615Z,77.38
2018-04-01T07:13:16.633Z,77.36
2018-04-01T07:14:16.633Z,77.59
2018-04-01T07:15:16.615Z,77.27
2018-04-01T07:16:16.620Z,77.41
2018-04-01T07:17:16.691Z,77.92
2018-04-01T07:18:16.606Z,77.59
2018-04-01T07:19:16.639Z,77.97
2018-04-01T07:20:16.613Z,78.36
2018-04-01T07:21:16.619Z,78.5
2018-04-01T07:22:16.615Z,78.53
2018-04-01T07:23:16.617Z,77.74
2018-04-01T07:24:16.615Z,78.27
2018-04-01T07:25:16.635Z,78.45
2018-04-01T07:26:16.625Z,78.65
2018-04-01T07:27:16.615Z,78.83
2018-04-01T07:28:16.902Z,78.6
2018-04-01T07:29:16.618Z,78.66
2018-04-01T07:30:16.614Z,78.73
2018-04-01T07:31:16.614Z,79.34
2018-04-01T07:32:16.610Z,79.26
2018-04-01T07:33:16.636Z,79.72
2018-04-01T07:34:16.639Z,80.14
2018-04-01T07:35:16.616Z,80.02
2018-04-01T07:36:16.685Z,80.18
2018-04-01T07:37:16.618Z,80.09
2018-04-01T07:38:16.676Z,80
2018-04-01T07:39:16.625Z,79.94
2018-04-01T07:40:16.623Z,80.16
2018-04-01T07:41:16.620Z,79.77
2018-04-01T07:42:16.624Z,79.69
2018-04-01T07:43:16.662Z,79.76
2018-04-01T07:44:16.621Z,79.59
2018-04-01T07:45:16.628Z,79.77
2018-04-01T07:46:16.620Z,79.9
2018-04-01T07:47:16.624Z,79.75
2018-04-01T07:48:16.704Z,79.63
2018-04-01T07:49:16.622Z,79.47
2018-04-01T07:50:16.648Z,79.33
2018-04-01T07:51:16.623Z,79.17
2018-04-01T07:52:16.623Z,79.36
2018-04-01T07:53:16.625Z,79.02
2018-04-01T07:54:16.626Z,79.03
2018-04-01T07:55:16.633Z,79.08
2018-04-01T07:56:16.630Z,78.62
2018-04-01T07:57:16.679Z,78.61
2018-04-01T07:58:16.633Z,78.95
2018-04-01T07:59:16.632Z,78.64
2018-04-01T08:00:16.628Z,79.27
2018-04-01T08:01:16.631Z,78.65
2018-04-01T08:02:16.629Z,78.84
2018-04-01T08:03:16.633Z,78.9
2018-04-01T08:04:16.890Z,78.82
2018-04-01T08:05:16.632Z,78.38
2018-04-01T08:06:16.628Z,78.35
2018-04-01T08:07:16.630Z,78.12
2018-04-01T08:08:16.634Z,78.08
2018-04-01T08:09:16.660Z,77.86
2018-04-01T08:10:16.640Z,78.13
2018-04-01T08:11:16.647Z,78.15
2018-04-01T08:12:16.638Z,78.08
2018-04-01T08:13:16.640Z,78.25
2018-04-01T08:14:16.659Z,77.93
2018-04-01T08:15:16.631Z,77.75
2018-04-01T08:16:16.635Z,77.16
2018-04-01T08:17:16.705Z,77.08
2018-04-01T08:18:16.638Z,77.38
2018-04-01T08:19:16.704Z,77.14
2018-04-01T08:20:16.638Z,77.39
2018-04-01T08:21:16.637Z,77.63
2018-04-01T08:22:16.636Z,77.6
2018-04-01T08:23:16.636Z,77.34
2018-04-01T08:24:16.776Z,76.87
2018-04-01T08:25:16.637Z,76.95
2018-04-01T08:26:16.641Z,76.97
2018-04-01T08:27:16.644Z,76.83
2018-04-01T08:28:16.648Z,76.62
2018-04-01T08:29:16.664Z,77.04
2018-04-01T08:30:16.699Z,77.3
2018-04-01T08:31:16.676Z,76.62
2018-04-01T08:32:16.647Z,76.9
2018-04-01T08:33:16.651Z,76.59
2018-04-01T08:34:16.664Z,77.33
2018-04-01T08:35:16.663Z,77.37
2018-04-01T08:36:16.969Z,77.49
2018-04-01T08:37:16.645Z,77.15
2018-04-01T08:38:16.648Z,77.66
2018-04-01T08:39:16.642Z,77.95
2018-04-01T08:40:16.644Z,76.87
2018-04-01T08:41:16.672Z,76.15
2018-04-01T08:42:16.654Z,75.96
2018-04-01T08:43:16.653Z,76.13
2018-04-01T08:44:16.653Z,76.72
2018-04-01T08:45:16.656Z,75.69
2018-04-01T08:46:16.784Z,75.03
2018-04-01T08:47:16.651Z,75.75
2018-04-01T08:48:16.656Z,75.73
2018-04-01T08:49:16.647Z,75.3
2018-04-01T08:50:16.716Z,76.13
2018-04-01T08:51:16.668Z,76.91
2018-04-01T08:52:16.644Z,77.56
2018-04-01T08:53:16.683Z,77.05
2018-04-01T08:54:16.650Z,77.45
2018-04-01T08:55:16.649Z,78.49
2018-04-01T08:56:16.992Z,78.76
2018-04-01T08:57:16.645Z,78.9
2018-04-01T08:58:16.649Z,79.94
2018-04-01T08:59:16.654Z,79.38
2018-04-01T09:00:16.656Z,79.33
2018-04-01T09:01:16.678Z,78.79
2018-04-01T09:02:16.650Z,79.5
2018-04-01T09:03:16.652Z,79.17
2018-04-01T09:04:16.652Z,79.3
2018-04-01T09:05:16.654Z,79.39
2018-04-01T09:06:16.778Z,79.48
2018-04-01T09:07:16.652Z,80.21
2018-04-01T09:08:16.653Z,80.75
2018-04-01T09:09:17.152Z,80.18
2018-04-01T09:10:16.650Z,79.31
2018-04-01T09:11:16.962Z,79.84
2018-04-01T09:12:16.982Z,79.87
2018-04-01T09:13:16.669Z,80.23
2018-04-01T09:14:16.811Z,79.67
2018-04-01T09:15:16.654Z,78.63
2018-04-01T09:16:16.674Z,78.88
2018-04-01T09:17:16.662Z,79.31
2018-04-01T09:18:16.674Z,78.43
2018-04-01T09:19:16.671Z,78.52
2018-04-01T09:20:16.659Z,78.7
2018-04-01T09:21:16.707Z,78.2
2018-04-01T09:22:16.706Z,77.52
2018-04-01T09:23:16.661Z,76.98
2018-04-01T09:24:16.656Z,78.09
2018-04-01T09:25:16.655Z,78.21
2018-04-01T09:26:16.728Z,77.58
2018-04-01T09:27:16.914Z,77.92
2018-04-01T09:28:16.660Z,77.59
2018-04-01T09:29:16.673Z,77.07
2018-04-01T09:30:16.669Z,77.42
2018-04-01T09:31:16.696Z,76.94
2018-04-01T09:32:16.693Z,77.18
2018-04-01T09:33:16.668Z,77.34
2018-04-01T09:34:16.699Z,77.21
2018-04-01T09:35:16.670Z,76.85
2018-04-01T09:36:16.666Z,76.93
2018-04-01T09:37:16.694Z,76.64
2018-04-01T09:38:16.665Z,76.71
2018-04-01T09:39:16.663Z,76.86
2018-04-01T09:40:16.668Z,76.45
2018-04-01T09:41:16.668Z,76.69
2018-04-01T09:42:16.695Z,76.46
2018-04-01T09:43:16.705Z,76.31
2018-04-01T09:44:16.677Z,76.88
2018-04-01T09:45:16.672Z,76.94
2018-04-01T09:46:16.674Z,76.4
2018-04-01T09:47:16.686Z,75.97
2018-04-01T09:48:16.670Z,75.94
2018-04-01T09:49:16.689Z,75.62
2018-04-01T09:50:16.676Z,75.67
2018-04-01T09:51:16.673Z,75.19
2018-04-01T09:52:16.744Z,74.92
2018-04-01T09:53:16.702Z,74.54
2018-04-01T09:54:16.671Z,73.56
2018-04-01T09:55:16.671Z,73.81
2018-04-01T09:56:16.866Z,72.9
2018-04-01T09:57:16.669Z,73.43
2018-04-01T09:58:16.676Z,73.95
2018-04-01T09:59:16.697Z,73.94
2018-04-01T10:00:16.690Z,74.16
2018-04-01T10:01:16.683Z,74.33
2018-04-01T10:02:16.686Z,72.39
2018-04-01T10:03:16.674Z,72.68
2018-04-01T10:04:16.690Z,73.18
2018-04-01T10:05:16.686Z,72.64
2018-04-01T10:06:16.813Z,72.27
2018-04-01T10:07:16.682Z,71.47
2018-04-01T10:08:16.676Z,70.6
2018-04-01T10:09:16.812Z,70.14
2018-04-01T10:10:16.684Z,70.06
2018-04-01T10:11:16.707Z,69.57
2018-04-01T10:12:16.700Z,69.13
2018-04-01T10:13:16.675Z,68.2
2018-04-01T10:14:16.675Z,69.01
2018-04-01T10:15:16.677Z,68.76
2018-04-01T10:16:16.699Z,67.95
2018-04-01T10:17:16.676Z,68.53
2018-04-01T10:18:17.239Z,67.81
2018-04-01T10:19:16.704Z,67.54
2018-04-01T10:20:16.719Z,68.06
2018-04-01T10:21:19.008Z,68.15
2018-04-01T10:22:16.753Z,67.82
2018-04-01T10:23:17.726Z,68.03
2018-04-01T10:24:16.682Z,68.24
2018-04-01T10:25:16.691Z,68.2
2018-04-01T10:26:16.703Z,67.81
2018-04-01T10:27:16.688Z,67.14
2018-04-01T10:28:16.684Z,68.11
2018-04-01T10:29:16.682Z,68.12
2018-04-01T10:30:16.686Z,68.09
2018-04-01T10:31:16.685Z,68.39
2018-04-01T10:32:16.690Z,67.82
2018-04-01T10:33:16.712Z,67.76
2018-04-01T10:34:16.696Z,67.92
2018-04-01T10:35:16.727Z,68.62
2018-04-01T10:36:16.700Z,68.95
2018-04-01T10:37:16.687Z,69.25
2018-04-01T10:38:16.774Z,69.44
2018-04-01T10:39:16.688Z,69.53
2018-04-01T10:40:16.693Z,68.78
2018-04-01T10:41:16.687Z,69.14
2018-04-01T10:42:16.688Z,69.15
2018-04-01T10:43:16.926Z,69.08
2018-04-01T10:44:16.690Z,68.99
2018-04-01T10:45:16.692Z,69.05
2018-04-01T10:46:16.689Z,68.92
2018-04-01T10:47:16.696Z,68.76
2018-04-01T10:48:16.738Z,67.94
2018-04-01T10:49:16.694Z,68.08
2018-04-01T10:50:16.698Z,67.47
2018-04-01T10:51:16.706Z,66.9
2018-04-01T10:52:16.708Z,66.56
2018-04-01T10:53:16.893Z,66.19
2018-04-01T10:54:16.805Z,66.06
2018-04-01T10:55:16.694Z,66.2
2018-04-01T10:56:16.701Z,65.88
2018-04-01T10:57:16.698Z,66.24
2018-04-01T10:58:16.732Z,66.07
2018-04-01T10:59:16.702Z,66.06
2018-04-01T11:00:16.697Z,64.46
2018-04-01T11:01:16.705Z,64.33
2018-04-01T11:02:16.694Z,64.04
2018-04-01T11:03:16.720Z,64.04
2018-04-01T11:04:16.697Z,64.74
2018-04-01T11:05:16.699Z,65.45
2018-04-01T11:06:16.705Z,65.67
2018-04-01T11:07:16.712Z,65.56
2018-04-01T11:08:16.730Z,64.99
2018-04-01T11:09:16.720Z,65.02
2018-04-01T11:10:16.719Z,65.29
2018-04-01T11:11:16.759Z,65.34
2018-04-01T11:12:16.724Z,65.42
2018-04-01T11:13:16.732Z,65.05
2018-04-01T11:14:16.701Z,65.03
2018-04-01T11:15:16.703Z,64.98
2018-04-01T11:16:16.714Z,65.19
2018-04-01T11:17:16.701Z,65.53
2018-04-01T11:18:16.743Z,64.54
2018-04-01T11:19:16.728Z,64.71
2018-04-01T11:20:16.702Z,63.8
2018-04-01T11:21:16.709Z,63.17
2018-04-01T11:22:16.718Z,62.64
2018-04-01T11:23:16.713Z,62.18
2018-04-01T11:24:16.728Z,62.04
2018-04-01T11:25:16.802Z,62.25
2018-04-01T11:26:16.708Z,60.52
2018-04-01T11:27:16.707Z,60.48
2018-04-01T11:28:16.737Z,60.34
2018-04-01T11:29:16.702Z,61.11
2018-04-01T11:30:16.706Z,61.48
2018-04-01T11:31:16.738Z,61.45
2018-04-01T11:32:16.731Z,61.73
2018-04-01T11:33:16.729Z,61.31
2018-04-01T11:34:16.742Z,61.25
2018-04-01T11:35:16.709Z,60.89
2018-04-01T11:36:16.710Z,60.88
2018-04-01T11:37:16.710Z,60.71
2018-04-01T11:38:16.710Z,60.69
2018-04-01T11:39:17.087Z,60.97
2018-04-01T11:40:16.718Z,61.72
2018-04-01T11:41:16.723Z,61.39
2018-04-01T11:42:16.711Z,61.72
2018-04-01T11:43:16.713Z,61.85
2018-04-01T11:44:16.744Z,62.34
2018-04-01T11:45:16.711Z,61.71
2018-04-01T11:46:16.713Z,61.83
2018-04-01T11:47:16.715Z,60.84
2018-04-01T11:48:16.712Z,59.99
2018-04-01T11:49:16.736Z,59.57
2018-04-01T11:50:16.733Z,59.82
2018-04-01T11:51:16.717Z,59.76
2018-04-01T11:52:16.724Z,59.85
2018-04-01T11:53:16.727Z,60.38
2018-04-01T11:54:16.723Z,60.83
2018-04-01T11:55:16.740Z,61.19
2018-04-01T11:56:16.785Z,61.97
2018-04-01T11:57:16.716Z,64.08
2018-04-01T11:58:16.719Z,65.06
2018-04-01T11:59:16.724Z,67.3
2018-04-01T12:00:16.714Z,70.39
2018-04-01T12:01:16.742Z,72.02
2018-04-01T12:02:16.722Z,72.17
2018-04-01T12:03:16.719Z,73.15
2018-04-01T12:04:16.716Z,75.11
2018-04-01T12:05:16.720Z,74.48
2018-04-01T12:06:16.849Z,76.34
2018-04-01T12:07:16.720Z,76.58
2018-04-01T12:08:16.722Z,75.47
2018-04-01T12:09:16.721Z,74.66
2018-04-01T12:10:16.721Z,74.59
2018-04-01T12:11:16.752Z,73.09
2018-04-01T12:12:16.720Z,73.68
2018-04-01T12:13:16.722Z,72.89
2018-04-01T12:14:16.770Z,72.46
2018-04-01T12:15:16.723Z,73.57
2018-04-01T12:16:16.744Z,73.43
2018-04-01T12:17:16.751Z,72.71
2018-04-01T12:18:16.735Z,72.43
2018-04-01T12:19:16.726Z,70.93
2018-04-01T12:20:16.727Z,69.54
2018-04-01T12:21:16.724Z,70.65
2018-04-01T12:22:16.750Z,70.52
2018-04-01T12:23:16.727Z,70.5
2018-04-01T12:24:16.778Z,70.12
2018-04-01T12:25:16.732Z,70.14
2018-04-01T12:26:16.747Z,70
2018-04-01T12:27:16.816Z,69.7
2018-04-01T12:28:16.726Z,69.31
2018-04-01T12:29:16.747Z,67.61
2018-04-01T12:30:16.727Z,68.48
2018-04-01T12:31:16.765Z,69.28
2018-04-01T12:32:16.751Z,68.49
2018-04-01T12:33:16.727Z,68.61
2018-04-01T12:34:16.729Z,68.79
2018-04-01T12:35:16.729Z,69.04
2018-04-01T12:36:16.727Z,68.92
2018-04-01T12:37:16.754Z,67.68
2018-04-01T12:38:16.792Z,67.95
2018-04-01T12:39:16.734Z,67.36
2018-04-01T12:40:16.737Z,68.54
2018-04-01T12:41:16.732Z,68.19
2018-04-01T12:42:16.762Z,67.98
2018-04-01T12:43:16.741Z,68.31
2018-04-01T12:44:16.736Z,69.25
2018-04-01T12:45:16.732Z,70.18
2018-04-01T12:46:16.738Z,70.28
2018-04-01T12:47:16.762Z,70.08
2018-04-01T12:48:16.744Z,69.74
2018-04-01T12:49:16.761Z,68.53
2018-04-01T12:50:16.754Z,69.5
2018-04-01T12:51:16.741Z,69.89
2018-04-01T12:52:16.761Z,70.07
2018-04-01T12:53:16.742Z,70.73
2018-04-01T12:54:16.740Z,70.65
2018-04-01T12:55:16.745Z,70.55